Time;durP1;ratioP1;P1;durP2;ratioP2;P2;SDS_P1;SDS_P2;PMS_P1;PMS_P2;Temp;Humidity;BMP_temperature;BMP_pressure;BME280_temperature;BME280_humidity;BME280_pressure;Samples;Min_cycle;Max_cycle;Signal;HPM_P1;HPM_P2
2021/05/04 00:02:59;;;;;;;4.63;3.47;;;;;;;11.27;42.08;99606.84;10343054;28;20057;-57
2021/05/04 00:08:00;;;;;;;4.25;3.80;;;;;;;11.22;42.58;99593.09;10339980;28;20046;-57
2021/05/04 00:13:01;;;;;;;5.15;3.95;;;;;;;11.24;42.41;99580.47;10342446;28;20050;-56
2021/05/04 00:18:02;;;;;;;5.85;4.95;;;;;;;11.22;42.97;99574.44;10342768;28;20046;-59
2021/05/04 00:23:03;;;;;;;4.00;3.60;;;;;;;11.11;43.13;99542.66;10349290;28;20049;-53
2021/05/04 00:28:04;;;;;;;3.92;3.53;;;;;;;11.13;42.94;99549.50;10342336;28;20380;-56
2021/05/04 00:33:17;;;;;;;5.13;4.13;;;;;;;11.11;43.18;99526.69;10342695;28;21973;-55
2021/05/04 00:38:18;;;;;;;3.83;3.53;;;;;;;11.07;43.36;99514.63;10338332;28;20069;-58
2021/05/04 00:43:25;;;;;;;4.78;3.90;;;;;;;11.04;43.42;99501.63;10342636;28;20041;-57
2021/05/04 00:48:28;;;;;;;5.60;3.55;;;;;;;11.01;43.47;99485.94;10350415;28;20733;-55
2021/05/04 00:53:30;;;;;;;4.43;3.60;;;;;;;11.09;43.57;99486.03;10349905;28;20143;-57
2021/05/04 00:58:34;;;;;;;3.78;3.40;;;;;;;11.07;44.30;99472.84;10349782;28;20669;-55
2021/05/04 01:03:36;;;;;;;3.80;3.38;;;;;;;11.09;43.87;99460.25;10347849;28;20050;-57
2021/05/04 01:08:37;;;;;;;3.67;3.25;;;;;;;11.09;43.29;99444.28;10346244;28;20213;-56
2021/05/04 01:13:38;;;;;;;4.07;3.67;;;;;;;10.98;43.71;99441.78;10347393;28;20049;-57
2021/05/04 01:18:39;;;;;;;3.58;3.28;;;;;;;10.93;43.46;99417.44;10349114;28;20128;-55
2021/05/04 01:23:40;;;;;;;3.70;3.35;;;;;;;10.94;43.55;99398.63;10347673;28;20046;-55
2021/05/04 01:28:41;;;;;;;4.65;3.63;;;;;;;11.02;43.73;99389.06;10345623;28;20137;-55
2021/05/04 01:33:42;;;;;;;4.20;3.38;;;;;;;10.99;43.25;99379.56;10349920;28;20080;-55
2021/05/04 01:38:43;;;;;;;4.20;3.13;;;;;;;11.06;43.16;99380.63;10345782;28;20470;-56
2021/05/04 01:43:44;;;;;;;5.32;3.70;;;;;;;11.11;42.91;99364.22;10347865;28;20045;-56
2021/05/04 01:48:45;;;;;;;3.47;3.00;;;;;;;11.14;42.75;99351.44;10347779;28;20045;-55
2021/05/04 01:53:46;;;;;;;4.25;3.40;;;;;;;11.25;42.74;99342.38;10346098;28;20050;-56
2021/05/04 01:58:48;;;;;;;4.18;2.88;;;;;;;11.29;42.03;99334.94;10347876;28;20065;-56
2021/05/04 02:03:49;;;;;;;3.05;2.80;;;;;;;11.32;41.70;99330.16;10339744;28;20061;-55
2021/05/04 02:08:50;;;;;;;5.25;2.90;;;;;;;11.32;41.27;99306.16;10324737;28;20097;-56
2021/05/04 02:13:51;;;;;;;3.55;2.72;;;;;;;11.44;41.53;99313.91;10329803;28;20665;-58
2021/05/04 02:18:52;;;;;;;3.05;2.70;;;;;;;11.51;41.24;99299.00;10341361;28;20041;-56
2021/05/04 02:23:53;;;;;;;6.30;2.45;;;;;;;11.56;41.08;99296.72;10345261;28;20479;-59
2021/05/04 02:28:54;;;;;;;2.53;2.33;;;;;;;11.52;40.86;99270.53;10344377;28;20054;-55
2021/05/04 02:33:55;;;;;;;3.25;2.38;;;;;;;11.53;40.79;99262.38;10340242;28;20104;-55
2021/05/04 02:38:56;;;;;;;4.72;2.47;;;;;;;11.53;40.99;99253.53;10342731;28;20053;-58
2021/05/04 02:43:57;;;;;;;2.10;1.90;;;;;;;11.44;41.42;99207.31;10343100;28;20061;-56
2021/05/04 02:48:58;;;;;;;3.15;2.33;;;;;;;11.55;41.07;99233.75;10339173;28;20133;-59
2021/05/04 02:53:59;;;;;;;2.40;2.20;;;;;;;11.51;41.24;99213.72;10338565;28;20679;-59
2021/05/04 02:59:00;;;;;;;4.50;3.15;;;;;;;11.49;41.58;99189.91;10343277;28;20054;-55
2021/05/04 03:04:01;;;;;;;5.68;2.53;;;;;;;11.44;41.52;99168.22;10342665;28;20127;-55
2021/05/04 03:09:04;;;;;;;3.03;2.50;;;;;;;11.45;41.80;99164.56;10339238;28;20054;-57
2021/05/04 03:14:04;;;;;;;2.60;2.40;;;;;;;11.40;42.27;99142.03;10343163;28;20112;-59
2021/05/04 03:19:05;;;;;;;6.43;2.72;;;;;;;11.32;42.36;99140.97;10342265;28;20513;-54
2021/05/04 03:24:07;;;;;;;3.88;2.30;;;;;;;11.16;42.70;99106.25;10342249;28;20519;-54
2021/05/04 03:29:08;;;;;;;3.75;2.70;;;;;;;11.18;43.06;99109.56;10342748;28;20061;-56
2021/05/04 03:34:09;;;;;;;3.70;2.75;;;;;;;11.18;43.20;99122.06;10345023;28;20041;-58
2021/05/04 03:39:10;;;;;;;4.65;3.08;;;;;;;11.15;43.53;99115.22;10339479;28;20178;-55
2021/05/04 03:44:11;;;;;;;3.15;2.50;;;;;;;11.07;43.81;99104.50;10336089;28;20083;-58
2021/05/04 03:49:12;;;;;;;7.28;2.60;;;;;;;11.12;43.76;99113.72;10333425;28;20046;-54
2021/05/04 03:54:14;;;;;;;3.63;3.13;;;;;;;11.02;43.79;99098.78;10337712;28;20069;-56
2021/05/04 03:59:14;;;;;;;5.65;3.40;;;;;;;11.10;44.24;99088.22;10340003;28;20054;-54
2021/05/04 04:04:15;;;;;;;4.95;2.65;;;;;;;11.03;44.10;99085.31;10342028;28;20108;-58
2021/05/04 04:09:16;;;;;;;4.30;2.88;;;;;;;11.10;44.28;99089.03;10340900;28;20045;-58
2021/05/04 04:14:17;;;;;;;4.03;3.00;;;;;;;10.98;44.77;99086.81;10341757;28;20418;-56
2021/05/04 04:19:18;;;;;;;5.63;2.92;;;;;;;11.01;44.59;99094.47;10342676;28;20133;-55
2021/05/04 04:24:19;;;;;;;2.60;2.40;;;;;;;10.98;45.27;99084.97;10339390;28;20058;-58
2021/05/04 04:29:20;;;;;;;3.50;2.42;;;;;;;10.98;44.81;99084.13;10341232;28;20049;-53
2021/05/04 04:34:21;;;;;;;4.18;2.83;;;;;;;10.99;45.06;99070.66;10341125;28;20058;-57
2021/05/04 04:39:22;;;;;;;4.05;2.60;;;;;;;10.97;45.16;99054.00;10334267;28;20104;-57
2021/05/04 04:44:23;;;;;;;4.30;2.88;;;;;;;11.07;44.88;99054.75;10340989;28;20584;-57
2021/05/04 04:49:24;;;;;;;3.70;2.60;;;;;;;11.07;44.96;99037.94;10339009;28;22045;-59
2021/05/04 04:54:25;;;;;;;3.22;2.42;;;;;;;10.90;45.29;99029.84;10335893;28;20077;-55
2021/05/04 04:59:28;;;;;;;2.95;2.67;;;;;;;11.05;45.01;99037.22;10339734;28;20066;-54
2021/05/04 05:04:29;;;;;;;5.63;3.08;;;;;;;11.04;45.50;99047.06;10321241;28;20061;-56
2021/05/04 05:09:30;;;;;;;3.28;2.97;;;;;;;11.07;45.09;99052.06;10338487;28;20049;-56
2021/05/04 05:14:35;;;;;;;2.53;2.33;;;;;;;11.09;45.22;99044.78;10332629;28;20056;-54
2021/05/04 05:19:36;;;;;;;3.40;2.50;;;;;;;11.10;45.27;99026.97;10328136;28;20096;-55
2021/05/04 05:24:38;;;;;;;6.18;3.58;;;;;;;11.13;45.19;99042.63;10337049;28;20065;-55
2021/05/04 05:29:39;;;;;;;4.50;2.85;;;;;;;11.08;45.27;99015.63;10337383;28;20038;-57
2021/05/04 05:34:40;;;;;;;3.50;2.53;;;;;;;11.13;44.88;99018.66;10344964;28;20053;-57
2021/05/04 05:39:44;;;;;;;3.33;2.70;;;;;;;11.11;45.39;99018.00;10337058;28;20071;-57
2021/05/04 05:44:45;;;;;;;5.90;3.30;;;;;;;11.23;45.32;99040.69;10338949;28;20643;-57
2021/05/04 05:49:46;;;;;;;2.97;2.40;;;;;;;11.09;45.75;99006.66;10336293;28;20046;-56
2021/05/04 05:54:47;;;;;;;3.63;2.47;;;;;;;11.23;45.56;99019.38;10341263;28;20426;-55
2021/05/04 05:59:48;;;;;;;3.13;2.80;;;;;;;11.15;45.93;99016.66;10340863;28;20576;-54
2021/05/04 06:04:51;;;;;;;3.08;2.20;;;;;;;11.25;46.02;99013.91;10334736;28;20045;-53
2021/05/04 06:09:52;;;;;;;3.30;2.20;;;;;;;11.24;46.17;99009.56;10339319;28;20137;-56
2021/05/04 06:14:53;;;;;;;6.70;3.50;;;;;;;11.30;45.78;99012.44;10336762;28;20060;-57
2021/05/04 06:19:54;;;;;;;5.32;3.10;;;;;;;11.34;47.37;99007.63;10342203;28;21713;-59
2021/05/04 06:24:55;;;;;;;4.97;2.83;;;;;;;11.43;45.31;99008.50;10337530;28;20078;-55
2021/05/04 06:29:58;;;;;;;4.40;3.00;;;;;;;11.42;45.48;98998.81;10340658;28;20066;-56
2021/05/04 06:34:59;;;;;;;6.50;2.42;;;;;;;11.66;45.20;98995.41;10337921;28;20065;-58
2021/05/04 06:40:00;;;;;;;4.93;2.40;;;;;;;11.83;43.80;98983.00;10338164;28;20046;-58
2021/05/04 06:45:03;;;;;;;4.63;2.75;;;;;;;11.97;42.57;99000.22;10342768;28;20058;-53
2021/05/04 06:50:05;;;;;;;2.90;1.58;;;;;;;12.03;40.18;98959.56;10345406;28;20132;-52
2021/05/04 06:55:07;;;;;;;3.35;1.33;;;;;;;12.26;38.55;98973.06;10346236;28;20048;-52
2021/05/04 07:00:09;;;;;;;4.70;2.00;;;;;;;12.31;37.89;98970.75;10348414;28;20046;-54
2021/05/04 07:05:10;;;;;;;5.25;1.67;;;;;;;12.34;38.02;98969.56;10345618;28;20054;-57
2021/05/04 07:10:11;;;;;;;5.65;1.65;;;;;;;12.45;38.96;98973.78;10347543;28;20100;-53
2021/05/04 07:15:13;;;;;;;6.55;1.48;;;;;;;12.38;39.41;98986.94;10340816;28;20467;-58
2021/05/04 07:20:22;;;;;;;2.53;1.50;;;;;;;12.43;41.07;99005.97;10348488;28;20058;-55
2021/05/04 07:25:22;;;;;;;1.58;1.15;;;;;;;12.39;42.14;99004.63;10345283;28;20061;-54
2021/05/04 07:30:24;;;;;;;2.42;1.23;;;;;;;12.32;44.47;99009.75;10354217;28;20495;-60
2021/05/04 07:35:26;;;;;;;1.92;1.20;;;;;;;12.07;47.41;99005.41;10346095;28;20069;-55
2021/05/04 07:40:27;;;;;;;3.28;0.98;;;;;;;11.72;50.91;98999.28;10343632;28;20069;-53
2021/05/04 07:45:28;;;;;;;3.42;1.15;;;;;;;11.52;51.15;98991.53;10346347;28;20065;-53
2021/05/04 07:50:30;;;;;;;6.43;1.70;;;;;;;11.47;52.33;98980.53;10346125;28;20152;-55
2021/05/04 07:55:31;;;;;;;2.00;1.10;;;;;;;11.50;52.31;98996.22;10347367;28;20100;-55
2021/05/04 08:00:32;;;;;;;1.73;1.45;;;;;;;11.41;53.49;98994.47;10340174;28;20499;-57
2021/05/04 08:05:33;;;;;;;2.53;1.42;;;;;;;11.48;54.52;98987.53;10345224;28;20534;-53
2021/05/04 08:10:34;;;;;;;2.15;1.27;;;;;;;11.26;55.82;98960.47;10344676;28;20092;-51
2021/05/04 08:15:36;;;;;;;2.63;0.90;;;;;;;11.23;56.47;98974.09;10349913;28;20725;-57
2021/05/04 08:20:45;;;;;;;4.55;1.20;;;;;;;11.09;57.10;98942.72;10345824;28;20052;-60
2021/05/04 08:25:46;;;;;;;3.60;1.50;;;;;;;11.40;56.93;98992.84;10346633;28;20423;-52
2021/05/04 08:30:50;;;;;;;3.38;1.33;;;;;;;11.56;55.27;98982.25;10346381;28;20050;-54
2021/05/04 08:35:51;;;;;;;4.28;1.98;;;;;;;11.45;54.57;98986.03;10345192;28;20076;-56
2021/05/04 08:40:52;;;;;;;3.13;1.38;;;;;;;11.51;53.26;98981.88;10342443;28;20057;-54
2021/05/04 08:45:58;;;;;;;2.78;1.30;;;;;;;11.49;52.71;98989.19;10344587;28;20050;-55
2021/05/04 08:50:59;;;;;;;4.30;1.25;;;;;;;11.54;52.50;98973.56;10342957;28;20207;-52
2021/05/04 08:56:20;;;;;;;1.45;1.30;;;;;;;11.71;52.52;98978.94;10343872;28;20046;-56
2021/05/04 09:01:21;;;;;;;1.83;0.90;;;;;;;11.64;51.92;98979.59;10345433;28;20632;-52
2021/05/04 09:06:36;;;;;;;1.67;0.90;;;;;;;11.71;51.99;98989.59;10350613;28;20085;-54
2021/05/04 09:22:34;;;;;;;1.58;0.93;;;;;;;11.65;53.27;99004.44;10336301;28;20621;-59
2021/05/04 09:27:35;;;;;;;2.05;1.00;;;;;;;11.63;53.76;98988.59;10307662;28;20053;-61
2021/05/04 09:32:46;;;;;;;2.65;0.90;;;;;;;11.53;54.46;99003.88;10305991;28;20057;-58
2021/05/04 09:37:47;;;;;;;4.43;1.15;;;;;;;11.45;54.58;99001.16;10302874;28;20499;-55
2021/05/04 09:43:01;;;;;;;1.73;1.05;;;;;;;11.52;54.88;99012.88;10305852;28;20060;-58
2021/05/04 09:48:30;;;;;;;1.30;1.10;;;;;;;11.49;55.30;99013.19;10310916;28;20069;-56
2021/05/04 09:58:41;;;;;;;2.22;1.13;;;;;;;11.52;56.06;98988.88;10308488;28;20081;-55
2021/05/04 10:03:47;;;;;;;2.22;1.33;;;;;;;11.59;55.68;98997.91;10306161;28;20069;-58
2021/05/04 10:08:50;;;;;;;1.83;1.33;;;;;;;11.47;55.87;99009.84;10308518;28;20054;-56
2021/05/04 10:13:54;;;;;;;4.15;1.33;;;;;;;11.44;56.47;99010.16;10309300;28;20057;-59
2021/05/04 10:18:59;;;;;;;2.53;0.98;;;;;;;11.30;56.89;98984.94;10304632;28;20743;-52
2021/05/04 10:24:01;;;;;;;2.00;1.48;;;;;;;11.31;57.27;98998.09;10309110;28;20149;-55
2021/05/04 10:29:07;;;;;;;2.30;1.10;;;;;;;11.39;57.40;99007.13;10306526;28;20568;-57
2021/05/04 10:34:23;;;;;;;3.58;1.40;;;;;;;11.49;57.46;98994.53;10304810;28;20080;-53
2021/05/04 10:39:53;;;;;;;3.03;1.23;;;;;;;11.40;57.76;99019.47;10309564;28;21143;-58
2021/05/04 10:44:57;;;;;;;4.10;1.20;;;;;;;11.30;58.16;99007.13;10287941;28;20049;-59
2021/05/04 10:50:00;;;;;;;2.00;1.20;;;;;;;11.16;58.44;99017.53;10301482;28;20050;-54
2021/05/04 10:55:02;;;;;;;2.42;1.95;;;;;;;11.18;58.98;99019.00;10306222;28;20112;-58
2021/05/04 11:00:03;;;;;;;3.50;1.15;;;;;;;11.28;58.55;99033.06;10304562;28;20101;-55
2021/05/04 11:05:05;;;;;;;2.80;1.13;;;;;;;11.34;59.12;99026.28;10310751;28;20100;-59
2021/05/04 11:10:11;;;;;;;1.42;1.27;;;;;;;11.34;58.94;99009.47;10303733;28;20427;-53
2021/05/04 11:15:24;;;;;;;3.35;1.40;;;;;;;11.23;59.90;99027.38;10304947;28;20054;-55
2021/05/04 11:20:30;;;;;;;2.22;1.50;;;;;;;11.12;59.65;98995.69;10301798;28;20420;-54
2021/05/04 11:25:33;;;;;;;2.15;1.42;;;;;;;11.31;59.40;99016.75;10306811;28;20050;-52
2021/05/04 11:30:40;;;;;;;1.73;1.63;;;;;;;11.41;59.15;99015.78;10307191;28;20074;-52
2021/05/04 11:35:41;;;;;;;2.45;1.30;;;;;;;11.48;59.16;99011.50;10306712;28;20555;-56
2021/05/04 11:40:42;;;;;;;3.65;1.58;;;;;;;11.54;59.33;99013.53;10307531;28;20096;-51
2021/05/04 11:45:43;;;;;;;3.45;2.40;;;;;;;11.47;59.24;98988.53;10303437;28;20050;-60
2021/05/04 11:50:52;;;;;;;3.03;1.60;;;;;;;11.42;60.53;98996.16;10300275;28;20053;-57
2021/05/04 11:55:54;;;;;;;3.30;1.65;;;;;;;11.52;60.11;98970.22;10299535;28;20104;-58
2021/05/04 12:01:00;;;;;;;1.60;1.15;;;;;;;11.64;59.64;98990.25;10301938;28;20512;-60
2021/05/04 12:06:03;;;;;;;3.25;1.45;;;;;;;11.70;59.99;98991.44;10306433;28;20073;-56
2021/05/04 12:11:04;;;;;;;2.17;1.52;;;;;;;11.83;60.52;98991.81;10299208;28;20069;-51
2021/05/04 12:16:14;;;;;;;4.43;1.40;;;;;;;11.76;60.22;98968.66;10300884;28;20411;-59
2021/05/04 12:21:16;;;;;;;2.80;1.10;;;;;;;11.73;60.04;98977.78;10300602;28;20053;-53
2021/05/04 12:26:21;;;;;;;2.08;1.23;;;;;;;11.93;59.82;98989.03;10302210;28;20926;-57
2021/05/04 12:31:32;;;;;;;4.22;1.63;;;;;;;12.00;59.20;98978.56;10299556;28;20053;-52
2021/05/04 12:36:44;;;;;;;2.45;1.27;;;;;;;12.05;58.82;98954.88;10295456;28;20053;-56
2021/05/04 12:41:49;;;;;;;2.15;1.17;;;;;;;11.98;59.16;98960.06;10306153;28;20041;-53
2021/05/04 12:46:55;;;;;;;2.00;1.15;;;;;;;11.97;58.82;98946.88;10308792;28;20458;-51
2021/05/04 12:51:56;;;;;;;2.40;1.42;;;;;;;12.16;57.84;98943.06;10311010;28;20112;-53
2021/05/04 12:56:57;;;;;;;4.72;1.17;;;;;;;12.16;58.27;98935.06;10310709;28;20057;-53
2021/05/04 13:02:05;;;;;;;3.88;1.30;;;;;;;12.09;58.75;98918.06;10301699;28;21036;-54
2021/05/04 13:07:36;;;;;;;2.85;1.92;;;;;;;12.26;58.04;98933.06;10311609;28;20130;-53
2021/05/04 13:18:04;;;;;;;2.95;1.38;;;;;;;13.09;54.83;98910.56;10305300;28;20050;-56
2021/05/04 13:34:29;;;;;;;3.20;1.13;;;;;;;13.21;53.83;98883.47;10301288;28;20054;-55
2021/05/04 13:50:25;;;;;;;1.83;1.00;;;;;;;13.38;54.18;98876.25;10285833;28;20046;-60
2021/05/04 13:55:26;;;;;;;5.38;1.45;;;;;;;13.38;53.72;98874.41;10311571;28;20128;-55
2021/05/04 14:01:33;;;;;;;4.13;1.70;;;;;;;13.47;54.97;98867.16;10308240;28;20066;-58
2021/05/04 14:27:13;;;;;;;1.45;1.00;;;;;;;14.12;51.22;98857.00;10305619;28;20116;-59
2021/05/04 14:32:14;;;;;;;3.67;1.02;;;;;;;14.39;50.57;98890.38;10304863;28;21653;-55
2021/05/04 14:47:57;;;;;;;1.58;0.60;;;;;;;14.07;52.78;98888.81;10308243;28;20049;-56
2021/05/04 14:58:45;;;;;;;1.48;1.10;;;;;;;14.05;55.02;98890.84;10304341;28;20103;-54
2021/05/04 15:03:46;;;;;;;2.08;1.05;;;;;;;13.81;56.11;98907.88;10302219;28;20090;-57
2021/05/04 15:08:47;;;;;;;1.75;1.08;;;;;;;13.32;58.26;98925.03;10299722;28;20148;-53
2021/05/04 15:13:49;;;;;;;2.90;1.02;;;;;;;12.85;63.34;98891.94;10304381;28;20523;-55
2021/05/04 15:24:11;;;;;;;3.63;1.10;;;;;;;12.64;61.26;98877.31;10304702;28;20050;-56
2021/05/04 15:29:12;;;;;;;1.85;0.45;;;;;;;12.54;56.16;98874.00;10303128;28;20073;-56
2021/05/04 15:34:13;;;;;;;0.63;0.20;;;;;;;12.48;53.42;98872.03;10302425;28;22367;-52
2021/05/04 15:39:14;;;;;;;1.00;0.30;;;;;;;12.45;52.13;98869.69;10303097;28;20504;-57
2021/05/04 15:44:15;;;;;;;0.65;0.30;;;;;;;12.25;51.44;98862.03;10300479;28;20077;-55
2021/05/04 15:49:36;;;;;;;1.55;0.47;;;;;;;12.11;51.20;98852.88;10296053;28;20042;-54
2021/05/04 16:10:18;;;;;;;0.82;0.25;;;;;;;12.02;52.60;98848.53;10295499;23;20058;-63
2021/05/04 16:15:19;;;;;;;2.17;0.50;;;;;;;11.85;52.92;98851.16;10254903;28;21137;-63
2021/05/04 16:30:57;;;;;;;0.85;0.30;;;;;;;11.77;53.86;98824.53;10250545;28;20042;-66
2021/05/04 16:35:58;;;;;;;0.52;0.20;;;;;;;11.87;54.90;98821.69;10257228;28;20422;-63
2021/05/04 16:40:59;;;;;;;1.08;0.30;;;;;;;11.79;56.61;98817.19;10260108;28;20562;-63
2021/05/04 16:46:02;;;;;;;1.20;0.52;;;;;;;11.75;57.11;98799.03;10254450;28;20105;-61
2021/05/04 16:51:03;;;;;;;2.22;0.82;;;;;;;11.75;56.89;98801.69;10259074;28;20046;-62
2021/05/04 16:56:05;;;;;;;1.88;1.02;;;;;;;11.66;55.98;98808.84;10253378;28;20055;-61
2021/05/04 17:01:12;;;;;;;2.65;0.60;;;;;;;11.55;54.30;98814.50;10259423;28;20070;-65
2021/05/04 17:11:20;;;;;;;2.97;0.70;;;;;;;11.40;53.68;98807.16;10262091;28;20061;-60
2021/05/04 17:16:21;;;;;;;3.25;1.17;;;;;;;11.35;53.96;98809.50;10260633;28;20059;-62
2021/05/04 17:21:22;;;;;;;2.78;0.73;;;;;;;11.42;53.93;98777.69;10255658;28;20057;-59
2021/05/04 17:26:25;;;;;;;3.55;0.80;;;;;;;11.59;54.04;98824.69;10260565;28;20054;-62
2021/05/04 17:31:26;;;;;;;1.38;0.50;;;;;;;11.44;54.52;98810.31;10267018;28;20144;-60
2021/05/04 17:36:28;;;;;;;2.20;0.60;;;;;;;11.52;54.59;98796.19;10264785;28;20054;-66
2021/05/04 17:41:29;;;;;;;2.88;0.60;;;;;;;11.55;54.78;98818.00;10263230;28;20285;-65
2021/05/04 17:46:34;;;;;;;1.63;1.00;;;;;;;11.42;55.00;98813.13;10263883;28;20619;-66
2021/05/04 17:51:36;;;;;;;1.10;0.40;;;;;;;11.38;55.63;98800.31;10266489;28;20051;-60
2021/05/04 17:56:38;;;;;;;0.98;0.30;;;;;;;11.21;56.24;98818.94;10270109;28;20447;-62
2021/05/04 18:01:40;;;;;;;1.60;0.52;;;;;;;11.21;57.22;98824.25;10262879;28;20069;-63
2021/05/04 18:06:43;;;;;;;4.07;1.70;;;;;;;11.18;57.24;98808.59;10266118;28;20050;-62
2021/05/04 18:11:48;;;;;;;1.10;0.52;;;;;;;11.11;58.18;98827.06;10255408;28;20043;-63
2021/05/04 18:22:10;;;;;;;1.17;0.50;;;;;;;11.00;58.83;98826.53;10264170;28;20042;-67
2021/05/04 18:27:11;;;;;;;1.88;0.60;;;;;;;10.92;59.37;98836.16;10263666;28;20052;-63
2021/05/04 18:32:15;;;;;;;2.20;0.60;;;;;;;10.84;59.82;98832.63;10263757;28;20058;-63
2021/05/04 18:55:00;;;;;;;1.90;0.80;;;;;;;10.72;61.15;98840.03;10261871;28;20046;-66
2021/05/04 19:29:54;;;;;;;1.67;0.85;;;;;;;10.53;65.33;98876.53;10258134;28;20249;-63
2021/05/04 20:12:02;;;;;;;4.60;1.50;;;;;;;10.57;66.52;98909.84;10248132;28;20566;-60
2021/05/04 20:17:15;;;;;;;5.00;1.92;;;;;;;10.63;66.60;98905.72;10250683;28;20058;-64
2021/05/04 20:22:18;;;;;;;1.85;1.70;;;;;;;10.70;66.48;98900.59;10253590;28;20518;-65
2021/05/04 20:27:19;;;;;;;3.50;1.60;;;;;;;10.61;66.32;98897.91;10275686;28;20061;-62
2021/05/04 20:32:21;;;;;;;4.22;1.58;;;;;;;10.58;66.69;98894.69;10283195;28;20132;-62
2021/05/04 20:37:22;;;;;;;2.50;1.60;;;;;;;10.60;66.23;98890.91;10289441;28;20074;-61
2021/05/04 20:42:24;;;;;;;2.60;1.67;;;;;;;10.59;65.82;98891.88;10290875;28;20113;-65
2021/05/04 20:47:25;;;;;;;2.25;1.77;;;;;;;10.56;65.93;98886.88;10293158;28;20051;-62
2021/05/04 20:52:30;;;;;;;2.55;1.65;;;;;;;10.44;65.82;98888.13;10292904;28;20050;-63
2021/05/04 20:57:31;;;;;;;3.72;1.90;;;;;;;10.43;65.20;98878.47;10296224;28;20138;-61
2021/05/04 21:02:33;;;;;;;2.72;2.00;;;;;;;10.33;65.06;98870.59;10300869;28;20606;-62
2021/05/04 21:07:34;;;;;;;3.83;1.38;;;;;;;10.32;64.56;98868.06;10301255;28;20054;-60
2021/05/04 21:12:35;;;;;;;3.08;1.60;;;;;;;10.32;64.13;98870.72;10293231;28;20054;-63
2021/05/04 21:17:48;;;;;;;2.42;1.83;;;;;;;10.29;63.28;98879.03;10302276;28;20050;-59
2021/05/04 21:23:23;;;;;;;2.83;1.13;;;;;;;10.33;62.93;98886.56;10300175;28;20054;-64
2021/05/04 21:28:24;;;;;;;3.97;1.20;;;;;;;10.27;61.84;98885.31;10298124;28;20464;-62
2021/05/04 21:33:25;;;;;;;4.97;1.73;;;;;;;10.24;61.04;98892.78;10299655;28;20050;-61
2021/05/04 21:38:26;;;;;;;3.40;0.90;;;;;;;10.16;61.03;98898.84;10306282;28;20295;-60
2021/05/04 21:43:29;;;;;;;3.83;1.10;;;;;;;10.16;60.97;98913.97;10304221;28;20057;-63
2021/05/04 21:48:30;;;;;;;4.85;0.90;;;;;;;10.08;61.31;98906.78;10304498;28;20051;-63
2021/05/04 21:53:31;;;;;;;4.18;1.25;;;;;;;10.04;61.81;98916.03;10298822;28;20050;-62
2021/05/04 21:58:32;;;;;;;3.33;1.10;;;;;;;9.94;62.43;98909.97;10308166;28;20073;-64
2021/05/04 22:03:33;;;;;;;3.00;1.00;;;;;;;9.89;63.36;98908.63;10301057;28;20065;-61
2021/05/04 22:08:34;;;;;;;2.15;0.60;;;;;;;9.80;63.97;98895.38;10297903;28;20133;-63
2021/05/04 22:39:49;;;;;;;1.65;0.80;;;;;;;9.55;68.50;98900.47;10296053;28;20054;-57
2021/05/04 23:16:27;;;;;;;1.80;1.00;;;;;;;9.26;70.33;98890.84;10287680;28;20129;-59
2021/05/04 23:21:29;;;;;;;2.95;1.05;;;;;;;9.28;70.60;98896.03;10287771;28;20526;-54
2021/05/04 23:26:30;;;;;;;2.60;1.08;;;;;;;9.25;70.86;98883.03;10297705;28;20054;-58
2021/05/04 23:31:31;;;;;;;2.33;1.58;;;;;;;9.29;70.27;98885.25;10294067;28;20042;-55
2021/05/04 23:36:33;;;;;;;2.15;1.33;;;;;;;9.25;69.98;98896.28;10298321;28;20506;-56
2021/05/04 23:41:34;;;;;;;3.10;1.25;;;;;;;9.17;70.62;98892.59;10292135;28;20047;-56
2021/05/04 23:46:35;;;;;;;5.03;1.35;;;;;;;9.06;70.42;98882.16;10286819;28;20629;-56
2021/05/04 23:51:37;;;;;;;3.55;1.10;;;;;;;9.02;70.34;98881.63;10283885;28;20049;-58
2021/05/04 23:56:38;;;;;;;3.90;1.40;;;;;;;9.03;69.69;98870.00;10284461;28;20514;-53
